Time;durP1;ratioP1;P1;durP2;ratioP2;P2;SDS_P1;SDS_P2;PMS_P1;PMS_P2;Temp;Humidity;BMP_temperature;BMP_pressure;BME280_temperature;BME280_humidity;BME280_pressure;Samples;Min_cycle;Max_cycle;Signal;HPM_P1;HPM_P2
2023/06/02 00:01:09;;;;;;;57.47;2.50;;;;;;;;;;5070447;28;20870;-70
2023/06/02 00:03:37;;;;;;;57.67;2.87;;;;;;;;;;5070577;28;20479;-70
2023/06/02 00:06:08;;;;;;;58.30;3.30;;;;;;;;;;5073962;28;20465;-70
2023/06/02 00:08:36;;;;;;;57.63;2.43;;;;;;;;;;5073406;28;20459;-70
2023/06/02 00:11:03;;;;;;;57.73;2.60;;;;;;;;;;5073599;28;21010;-70
2023/06/02 00:13:30;;;;;;;57.67;2.43;;;;;;;;;;5073654;28;21033;-70
2023/06/02 00:15:59;;;;;;;57.43;2.80;;;;;;;;;;5073701;28;20533;-69
2023/06/02 00:18:26;;;;;;;57.77;3.13;;;;;;;;;;5073949;28;20490;-70
2023/06/02 00:20:53;;;;;;;57.67;3.20;;;;;;;;;;5073097;28;20479;-69
2023/06/02 00:23:21;;;;;;;58.17;2.77;;;;;;;;;;5073532;28;20562;-70
2023/06/02 00:25:48;;;;;;;57.77;3.07;;;;;;;;;;5073728;28;20508;-70
2023/06/02 00:28:16;;;;;;;57.50;2.70;;;;;;;;;;5073605;28;20487;-70
2023/06/02 00:30:43;;;;;;;57.33;2.50;;;;;;;;;;5072898;28;20558;-69
2023/06/02 00:33:11;;;;;;;57.90;3.10;;;;;;;;;;5073646;28;20542;-70
2023/06/02 00:35:38;;;;;;;57.60;2.70;;;;;;;;;;5073339;28;20955;-70
2023/06/02 00:38:06;;;;;;;57.80;3.30;;;;;;;;;;5073213;28;20539;-69
2023/06/02 00:40:33;;;;;;;62.13;3.03;;;;;;;;;;5072918;28;20906;-70
2023/06/02 00:43:01;;;;;;;57.77;2.70;;;;;;;;;;5073299;28;20501;-70
2023/06/02 00:45:28;;;;;;;57.60;2.63;;;;;;;;;;5073435;28;20455;-70
2023/06/02 00:47:55;;;;;;;58.20;2.80;;;;;;;;;;5073202;28;20538;-70
2023/06/02 00:50:25;;;;;;;57.57;2.90;;;;;;;;;;5072761;28;20575;-70
2023/06/02 00:52:53;;;;;;;57.27;2.50;;;;;;;;;;5072876;28;20944;-70
2023/06/02 00:55:20;;;;;;;59.13;2.70;;;;;;;;;;5073280;28;20455;-71
2023/06/02 00:57:48;;;;;;;58.07;3.10;;;;;;;;;;5072926;28;20481;-71
2023/06/02 01:00:16;;;;;;;57.87;2.87;;;;;;;;;;5072545;28;20451;-70
2023/06/02 01:02:43;;;;;;;57.53;2.60;;;;;;;;;;5072806;28;20983;-70
2023/06/02 01:05:12;;;;;;;58.20;2.97;;;;;;;;;;5072667;28;20831;-71
2023/06/02 01:07:44;;;;;;;57.60;2.50;;;;;;;;;;5073067;28;20899;-71
2023/06/02 01:10:12;;;;;;;57.73;3.57;;;;;;;;;;5072025;28;20459;-70
2023/06/02 01:12:39;;;;;;;57.47;2.77;;;;;;;;;;5072868;28;20478;-70
2023/06/02 01:15:07;;;;;;;57.57;2.70;;;;;;;;;;5073000;28;20458;-70
2023/06/02 01:17:35;;;;;;;59.40;3.47;;;;;;;;;;5072776;28;20447;-70
2023/06/02 01:20:09;;;;;;;57.47;2.47;;;;;;;;;;5067898;28;20944;-70
2023/06/02 01:22:40;;;;;;;57.67;3.13;;;;;;;;;;5072869;28;20894;-71
2023/06/02 01:25:22;;;;;;;58.77;3.57;;;;;;;;;;5072360;28;20440;-70
2023/06/02 01:27:51;;;;;;;57.50;2.60;;;;;;;;;;5070508;28;20451;-70
2023/06/02 01:30:18;;;;;;;57.40;2.40;;;;;;;;;;5071796;28;20450;-70
2023/06/02 01:32:49;;;;;;;57.70;2.60;;;;;;;;;;5072241;28;20478;-70
2023/06/02 01:35:17;;;;;;;58.53;2.93;;;;;;;;;;5072138;28;20451;-71
2023/06/02 01:37:45;;;;;;;57.37;2.33;;;;;;;;;;5072537;28;20455;-70
2023/06/02 01:40:13;;;;;;;57.27;2.57;;;;;;;;;;5071691;28;20447;-70
2023/06/02 01:42:41;;;;;;;57.37;2.50;;;;;;;;;;5072093;28;20473;-70
2023/06/02 01:45:10;;;;;;;57.17;2.30;;;;;;;;;;5072144;28;20887;-70
2023/06/02 01:47:37;;;;;;;57.40;2.40;;;;;;;;;;5072292;28;20461;-70
2023/06/02 01:50:05;;;;;;;57.90;3.47;;;;;;;;;;5071332;28;20466;-70
2023/06/02 01:52:32;;;;;;;57.37;2.30;;;;;;;;;;5072018;28;20495;-70
2023/06/02 01:54:59;;;;;;;57.37;2.40;;;;;;;;;;5072101;28;20447;-71
2023/06/02 01:57:27;;;;;;;57.87;2.67;;;;;;;;;;5071596;28;20521;-70
2023/06/02 01:59:55;;;;;;;57.63;3.00;;;;;;;;;;5071327;28;20486;-70
2023/06/02 02:02:23;;;;;;;58.53;2.87;;;;;;;;;;5072264;28;20459;-70
2023/06/02 02:04:50;;;;;;;57.27;2.40;;;;;;;;;;5071677;28;20451;-70
2023/06/02 02:07:19;;;;;;;57.60;2.60;;;;;;;;;;5071477;28;20951;-70
2023/06/02 02:09:46;;;;;;;57.47;2.53;;;;;;;;;;5071267;28;20456;-70
2023/06/02 02:12:14;;;;;;;57.50;2.70;;;;;;;;;;5071408;28;20495;-70
2023/06/02 02:14:41;;;;;;;57.80;2.70;;;;;;;;;;5071630;28;20455;-70
2023/06/02 02:17:09;;;;;;;58.57;4.10;;;;;;;;;;5071490;28;20451;-70
2023/06/02 02:19:38;;;;;;;58.00;3.10;;;;;;;;;;5071123;28;20447;-70
2023/06/02 02:22:05;;;;;;;57.77;3.00;;;;;;;;;;5071452;28;20467;-70
2023/06/02 02:24:33;;;;;;;58.17;3.23;;;;;;;;;;5071397;28;20452;-70
2023/06/02 02:27:00;;;;;;;57.37;2.40;;;;;;;;;;5071231;28;20462;-70
2023/06/02 02:29:27;;;;;;;57.37;2.40;;;;;;;;;;5070908;28;20819;-71
2023/06/02 02:31:55;;;;;;;57.70;2.60;;;;;;;;;;5071485;28;20859;-70
2023/06/02 02:34:24;;;;;;;57.17;2.47;;;;;;;;;;5071449;28;20818;-70
2023/06/02 02:36:55;;;;;;;58.57;3.50;;;;;;;;;;5071425;28;20447;-70
2023/06/02 02:39:22;;;;;;;57.57;2.77;;;;;;;;;;5070639;28;20748;-70
2023/06/02 02:41:49;;;;;;;59.20;3.57;;;;;;;;;;5070998;28;20464;-70
2023/06/02 02:44:16;;;;;;;57.50;2.87;;;;;;;;;;5071245;28;20924;-70
2023/06/02 02:46:43;;;;;;;57.50;2.40;;;;;;;;;;5071313;28;20461;-70
2023/06/02 02:49:10;;;;;;;57.17;2.47;;;;;;;;;;5070755;28;20448;-70
2023/06/02 02:51:37;;;;;;;57.47;2.50;;;;;;;;;;5071246;28;20487;-70
2023/06/02 02:54:06;;;;;;;57.60;2.50;;;;;;;;;;5071540;28;20459;-70
2023/06/02 02:56:34;;;;;;;57.47;2.43;;;;;;;;;;5070781;28;20503;-70
2023/06/02 02:59:02;;;;;;;57.70;3.07;;;;;;;;;;5070259;28;20505;-70
2023/06/02 03:01:30;;;;;;;57.57;2.60;;;;;;;;;;5070841;28;20486;-70
2023/06/02 03:03:58;;;;;;;57.50;2.60;;;;;;;;;;5070950;28;20944;-70
2023/06/02 03:06:31;;;;;;;57.37;2.40;;;;;;;;;;5070882;28;20453;-70
2023/06/02 03:08:58;;;;;;;57.27;2.40;;;;;;;;;;5070463;28;20472;-70
2023/06/02 03:11:27;;;;;;;57.27;2.70;;;;;;;;;;5070944;28;20483;-70
2023/06/02 03:13:54;;;;;;;57.27;2.30;;;;;;;;;;5071021;28;20452;-70
2023/06/02 03:16:21;;;;;;;57.27;2.50;;;;;;;;;;5070966;28;20455;-70
2023/06/02 03:18:48;;;;;;;57.57;2.70;;;;;;;;;;5070308;28;21037;-70
2023/06/02 03:21:17;;;;;;;58.10;3.37;;;;;;;;;;5070579;28;20458;-70
2023/06/02 03:23:44;;;;;;;57.60;2.80;;;;;;;;;;5071131;28;20561;-70
2023/06/02 03:26:12;;;;;;;57.90;3.17;;;;;;;;;;5070839;28;20453;-70
2023/06/02 03:28:42;;;;;;;57.77;3.00;;;;;;;;;;5070170;28;20530;-70
2023/06/02 03:31:09;;;;;;;57.90;2.60;;;;;;;;;;5070638;28;21206;-70
2023/06/02 03:33:37;;;;;;;57.67;2.50;;;;;;;;;;5070975;28;20443;-70
2023/06/02 03:36:05;;;;;;;57.33;2.40;;;;;;;;;;5070541;28;20451;-70
2023/06/02 03:38:32;;;;;;;57.33;2.80;;;;;;;;;;5070654;28;20451;-70
2023/06/02 03:40:59;;;;;;;57.73;3.00;;;;;;;;;;5074481;28;20455;-70
2023/06/02 03:43:26;;;;;;;58.83;3.87;;;;;;;;;;5074544;28;20467;-70
2023/06/02 03:45:55;;;;;;;57.47;2.60;;;;;;;;;;5074721;28;20444;-70
2023/06/02 03:48:22;;;;;;;57.60;3.17;;;;;;;;;;5074603;28;20456;-70
2023/06/02 03:50:49;;;;;;;58.37;2.83;;;;;;;;;;5073994;28;20462;-70
2023/06/02 03:53:16;;;;;;;57.50;2.43;;;;;;;;;;5074213;28;20463;-70
2023/06/02 03:55:43;;;;;;;57.60;2.70;;;;;;;;;;5073901;28;20945;-70
2023/06/02 03:58:12;;;;;;;57.90;2.90;;;;;;;;;;5074188;28;20428;-70
2023/06/02 04:00:39;;;;;;;57.57;2.73;;;;;;;;;;5073586;28;20889;-70
2023/06/02 04:03:09;;;;;;;57.60;3.00;;;;;;;;;;5073892;28;21001;-70
2023/06/02 04:05:36;;;;;;;57.57;2.50;;;;;;;;;;5073968;28;20447;-70
2023/06/02 04:08:03;;;;;;;58.20;3.30;;;;;;;;;;5074127;28;20439;-70
2023/06/02 04:10:31;;;;;;;58.93;2.80;;;;;;;;;;5073324;28;20473;-70
2023/06/02 04:12:58;;;;;;;57.90;2.97;;;;;;;;;;5074090;28;20487;-70
2023/06/02 04:15:25;;;;;;;57.70;2.50;;;;;;;;;;5073984;28;20447;-70
2023/06/02 04:17:52;;;;;;;57.37;2.50;;;;;;;;;;5074079;28;20452;-70
2023/06/02 04:20:20;;;;;;;57.17;2.40;;;;;;;;;;5073035;28;20450;-70
2023/06/02 04:22:48;;;;;;;57.23;2.50;;;;;;;;;;5073775;28;20459;-70
2023/06/02 04:25:15;;;;;;;57.37;2.60;;;;;;;;;;5073654;28;20470;-70
2023/06/02 04:27:42;;;;;;;57.40;2.40;;;;;;;;;;5073472;28;20444;-71
2023/06/02 04:30:09;;;;;;;57.20;2.27;;;;;;;;;;5073113;28;20458;-70
2023/06/02 04:32:36;;;;;;;58.23;3.20;;;;;;;;;;5073430;28;21022;-70
2023/06/02 04:35:04;;;;;;;57.43;2.50;;;;;;;;;;5073753;28;20450;-70
2023/06/02 04:37:32;;;;;;;57.37;2.60;;;;;;;;;;5073378;28;20459;-70
2023/06/02 04:40:01;;;;;;;57.70;3.17;;;;;;;;;;5072773;28;20455;-70
2023/06/02 04:42:28;;;;;;;57.70;3.07;;;;;;;;;;5073230;28;20467;-70
2023/06/02 04:45:00;;;;;;;57.57;2.90;;;;;;;;;;5073658;28;20457;-70
2023/06/02 04:47:27;;;;;;;57.40;2.50;;;;;;;;;;5073558;28;20434;-70
2023/06/02 04:49:55;;;;;;;57.27;2.60;;;;;;;;;;5072311;28;20444;-70
2023/06/02 04:52:22;;;;;;;57.70;3.37;;;;;;;;;;5072651;28;21009;-70
2023/06/02 04:54:50;;;;;;;57.40;2.23;;;;;;;;;;5073215;28;20450;-70
2023/06/02 04:57:17;;;;;;;58.17;2.70;;;;;;;;;;5072885;28;20891;-70
2023/06/02 04:59:45;;;;;;;57.80;2.60;;;;;;;;;;5072316;28;21028;-70
2023/06/02 05:02:13;;;;;;;57.23;2.40;;;;;;;;;;5073292;28;20550;-71
2023/06/02 05:04:40;;;;;;;57.27;2.40;;;;;;;;;;5073305;28;20783;-70
2023/06/02 05:07:08;;;;;;;57.77;3.23;;;;;;;;;;5072803;28;20453;-70
2023/06/02 05:09:35;;;;;;;57.50;2.70;;;;;;;;;;5072046;28;20928;-70
2023/06/02 05:12:03;;;;;;;57.37;2.60;;;;;;;;;;5072626;28;20493;-70
2023/06/02 05:14:30;;;;;;;56.97;2.43;;;;;;;;;;5072851;28;20458;-70
2023/06/02 05:16:57;;;;;;;57.40;2.40;;;;;;;;;;5072824;28;20827;-70
2023/06/02 05:19:25;;;;;;;57.60;3.37;;;;;;;;;;5072282;28;20443;-70
2023/06/02 05:21:52;;;;;;;58.77;5.00;;;;;;;;;;5072521;28;20463;-70
2023/06/02 05:24:19;;;;;;;57.37;2.60;;;;;;;;;;5072946;28;20928;-70
2023/06/02 05:26:46;;;;;;;57.40;3.43;;;;;;;;;;5072771;28;20453;-70
2023/06/02 05:29:14;;;;;;;57.80;2.80;;;;;;;;;;5072148;28;20457;-70
2023/06/02 05:31:42;;;;;;;57.10;2.37;;;;;;;;;;5072452;28;20490;-70
2023/06/02 05:34:09;;;;;;;57.20;2.50;;;;;;;;;;5072658;28;20453;-70
2023/06/02 05:36:36;;;;;;;57.33;2.97;;;;;;;;;;5072386;28;20964;-71
2023/06/02 05:39:04;;;;;;;57.90;3.23;;;;;;;;;;5071472;28;20460;-70
2023/06/02 05:41:31;;;;;;;57.20;2.50;;;;;;;;;;5072585;28;20476;-70
2023/06/02 05:43:58;;;;;;;58.87;2.50;;;;;;;;;;5072463;28;20462;-70
2023/06/02 05:46:26;;;;;;;57.80;3.03;;;;;;;;;;5072023;28;20964;-70
2023/06/02 05:48:53;;;;;;;57.67;3.33;;;;;;;;;;5071443;28;20470;-70
2023/06/02 05:51:20;;;;;;;57.43;2.50;;;;;;;;;;5071981;28;20801;-70
2023/06/02 05:53:49;;;;;;;57.27;2.50;;;;;;;;;;5072088;28;20487;-70
2023/06/02 05:56:17;;;;;;;58.10;4.00;;;;;;;;;;5071877;28;20467;-70
2023/06/02 05:58:46;;;;;;;57.07;2.53;;;;;;;;;;5071440;28;20530;-70
2023/06/02 06:01:13;;;;;;;57.50;2.63;;;;;;;;;;5071299;28;20452;-70
2023/06/02 06:03:41;;;;;;;57.40;2.50;;;;;;;;;;5071439;28;20924;-70
2023/06/02 06:06:08;;;;;;;57.57;3.03;;;;;;;;;;5071771;28;20448;-71
2023/06/02 06:08:36;;;;;;;57.10;2.50;;;;;;;;;;5071233;28;20452;-70
2023/06/02 06:11:03;;;;;;;57.37;2.60;;;;;;;;;;5071880;28;20447;-70
2023/06/02 06:13:30;;;;;;;57.07;2.30;;;;;;;;;;5071715;28;20494;-70
2023/06/02 06:15:57;;;;;;;57.30;2.70;;;;;;;;;;5071542;28;20462;-70
2023/06/02 06:18:25;;;;;;;57.27;2.67;;;;;;;;;;5071326;28;20452;-71
2023/06/02 06:20:53;;;;;;;57.13;2.90;;;;;;;;;;5071080;28;20567;-70
2023/06/02 06:23:20;;;;;;;57.30;2.70;;;;;;;;;;5071651;28;20828;-70
2023/06/02 06:25:47;;;;;;;57.93;3.70;;;;;;;;;;5071670;28;20462;-71
2023/06/02 06:28:14;;;;;;;57.57;2.67;;;;;;;;;;5071647;28;20821;-71
2023/06/02 06:30:42;;;;;;;57.60;3.20;;;;;;;;;;5071077;28;20448;-70
2023/06/02 06:33:09;;;;;;;57.40;2.60;;;;;;;;;;5071034;28;20483;-71
2023/06/02 06:35:36;;;;;;;57.40;2.50;;;;;;;;;;5071507;28;20550;-71
2023/06/02 06:38:04;;;;;;;57.10;2.20;;;;;;;;;;5071385;28;20462;-71
2023/06/02 06:40:32;;;;;;;57.40;2.77;;;;;;;;;;5070479;28;20447;-70
2023/06/02 06:42:59;;;;;;;59.20;2.97;;;;;;;;;;5071651;28;20466;-70
2023/06/02 06:45:26;;;;;;;57.30;2.80;;;;;;;;;;5071539;28;20803;-70
2023/06/02 06:47:53;;;;;;;57.07;2.50;;;;;;;;;;5071378;28;20448;-70
2023/06/02 06:50:20;;;;;;;58.80;3.03;;;;;;;;;;5070347;28;20456;-70
2023/06/02 06:52:49;;;;;;;58.50;2.60;;;;;;;;;;5071054;28;20495;-71
2023/06/02 06:55:17;;;;;;;57.07;2.20;;;;;;;;;;5071096;28;20451;-70
2023/06/02 06:57:44;;;;;;;58.17;2.63;;;;;;;;;;5070917;28;20467;-71
2023/06/02 07:00:12;;;;;;;58.00;3.13;;;;;;;;;;5070200;28;20451;-69
2023/06/02 07:02:39;;;;;;;58.10;3.03;;;;;;;;;;5071157;28;20493;-70
2023/06/02 07:05:06;;;;;;;58.87;3.70;;;;;;;;;;5071071;28;20454;-70
2023/06/02 07:07:34;;;;;;;57.70;2.90;;;;;;;;;;5070902;28;20977;-70
2023/06/02 07:10:01;;;;;;;57.37;3.33;;;;;;;;;;5070283;28;20453;-69
2023/06/02 07:12:29;;;;;;;58.10;3.03;;;;;;;;;;5071053;28;20494;-70
2023/06/02 07:14:56;;;;;;;57.23;2.40;;;;;;;;;;5074996;28;20462;-69
2023/06/02 07:17:23;;;;;;;57.40;2.93;;;;;;;;;;5075169;28;20462;-69
2023/06/02 07:19:50;;;;;;;57.40;3.00;;;;;;;;;;5074102;28;20550;-70
2023/06/02 07:22:18;;;;;;;58.07;3.77;;;;;;;;;;5074977;28;20486;-69
2023/06/02 07:24:45;;;;;;;57.87;2.90;;;;;;;;;;5074875;28;20461;-69
2023/06/02 07:27:13;;;;;;;57.70;2.63;;;;;;;;;;5074593;28;20966;-70
2023/06/02 07:29:41;;;;;;;57.40;2.70;;;;;;;;;;5074269;28;20443;-70
2023/06/02 07:32:09;;;;;;;59.77;3.57;;;;;;;;;;5074830;28;20477;-70
2023/06/02 07:34:36;;;;;;;57.27;2.40;;;;;;;;;;5075061;28;20450;-70
2023/06/02 07:37:03;;;;;;;57.17;2.63;;;;;;;;;;5074505;28;20967;-70
2023/06/02 07:39:30;;;;;;;57.87;2.73;;;;;;;;;;5074074;28;20482;-69
2023/06/02 07:41:57;;;;;;;58.23;2.80;;;;;;;;;;5074809;28;20471;-69
2023/06/02 07:44:25;;;;;;;57.40;2.50;;;;;;;;;;5074437;28;20458;-70
2023/06/02 07:46:53;;;;;;;56.77;2.37;;;;;;;;;;5074553;28;20466;-70
2023/06/02 07:49:20;;;;;;;57.40;2.87;;;;;;;;;;5073859;28;20458;-69
2023/06/02 07:51:47;;;;;;;58.07;3.03;;;;;;;;;;5074345;28;20474;-70
2023/06/02 07:54:14;;;;;;;63.00;3.23;;;;;;;;;;5074262;28;20482;-70
2023/06/02 07:56:41;;;;;;;59.43;2.50;;;;;;;;;;5074131;28;20463;-70
2023/06/02 07:59:11;;;;;;;57.80;3.00;;;;;;;;;;5073606;28;20451;-69
2023/06/02 08:01:38;;;;;;;57.23;2.47;;;;;;;;;;5074143;28;20578;-70
2023/06/02 08:04:07;;;;;;;58.37;3.27;;;;;;;;;;5074121;28;20447;-70
2023/06/02 08:06:34;;;;;;;57.47;2.70;;;;;;;;;;5074377;28;20822;-70
2023/06/02 08:09:01;;;;;;;58.00;2.97;;;;;;;;;;5073164;28;20553;-70
2023/06/02 08:11:28;;;;;;;57.27;2.67;;;;;;;;;;5074104;28;20469;-70
2023/06/02 08:13:55;;;;;;;57.93;3.27;;;;;;;;;;5073816;28;20479;-70
2023/06/02 08:16:23;;;;;;;57.93;2.53;;;;;;;;;;5074080;28;20449;-70
2023/06/02 08:18:50;;;;;;;57.60;2.97;;;;;;;;;;5073025;28;20459;-70
2023/06/02 08:21:18;;;;;;;57.70;2.50;;;;;;;;;;5073916;28;20823;-70
2023/06/02 08:23:45;;;;;;;57.40;2.60;;;;;;;;;;5073805;28;20447;-70
2023/06/02 08:26:12;;;;;;;57.40;2.60;;;;;;;;;;5073054;28;20492;-70
2023/06/02 08:28:41;;;;;;;57.70;2.90;;;;;;;;;;5072972;28;20461;-69
2023/06/02 08:31:09;;;;;;;57.40;2.50;;;;;;;;;;5073670;28;20823;-70
2023/06/02 08:33:36;;;;;;;58.70;3.07;;;;;;;;;;5073782;28;20479;-70
2023/06/02 08:36:06;;;;;;;58.67;3.40;;;;;;;;;;5073500;28;20452;-70
2023/06/02 08:38:37;;;;;;;57.37;2.50;;;;;;;;;;5073265;28;20917;-70
2023/06/02 08:41:05;;;;;;;57.27;2.87;;;;;;;;;;5073717;28;20444;-70
2023/06/02 08:43:32;;;;;;;58.13;2.70;;;;;;;;;;5073247;28;20840;-70
2023/06/02 08:46:00;;;;;;;57.87;2.77;;;;;;;;;;5073555;28;20447;-70
2023/06/02 08:48:28;;;;;;;57.10;2.30;;;;;;;;;;5073403;28;20502;-70
2023/06/02 08:50:58;;;;;;;57.27;2.47;;;;;;;;;;5073001;28;20443;-70
2023/06/02 08:53:26;;;;;;;57.37;2.33;;;;;;;;;;5073307;28;20903;-70
2023/06/02 08:55:54;;;;;;;57.20;2.67;;;;;;;;;;5073467;28;20845;-70
2023/06/02 08:58:21;;;;;;;57.73;2.50;;;;;;;;;;5073552;28;20455;-70
2023/06/02 09:00:48;;;;;;;57.77;2.70;;;;;;;;;;5072489;28;20451;-70
2023/06/02 09:03:16;;;;;;;58.10;2.70;;;;;;;;;;5073116;28;20467;-70
2023/06/02 09:05:44;;;;;;;57.60;2.80;;;;;;;;;;5073115;28;20451;-70
2023/06/02 09:08:11;;;;;;;57.27;2.80;;;;;;;;;;5072838;28;20459;-70
2023/06/02 09:10:41;;;;;;;58.87;3.60;;;;;;;;;;5072545;28;20450;-70
2023/06/02 09:13:10;;;;;;;57.50;2.57;;;;;;;;;;5072721;28;21117;-70
2023/06/02 09:15:39;;;;;;;57.07;2.50;;;;;;;;;;5072953;28;20443;-70
2023/06/02 09:18:12;;;;;;;58.33;2.70;;;;;;;;;;5072657;28;20456;-70
2023/06/02 09:20:41;;;;;;;58.20;2.77;;;;;;;;;;5072188;28;20474;-70
2023/06/02 09:23:08;;;;;;;57.40;2.77;;;;;;;;;;5073127;28;20554;-70
2023/06/02 09:25:38;;;;;;;57.10;2.50;;;;;;;;;;5072919;28;20451;-70
2023/06/02 09:28:05;;;;;;;58.60;3.33;;;;;;;;;;5072425;28;20443;-70
2023/06/02 09:30:33;;;;;;;58.17;2.93;;;;;;;;;;5072227;28;20536;-71
2023/06/02 09:33:01;;;;;;;57.20;2.50;;;;;;;;;;5072498;28;20497;-70
2023/06/02 09:35:40;;;;;;;57.60;3.13;;;;;;;;;;5072444;28;20447;-70
2023/06/02 09:38:09;;;;;;;57.37;2.73;;;;;;;;;;5071651;28;20874;-70
2023/06/02 09:40:37;;;;;;;57.90;3.47;;;;;;;;;;5071391;28;20479;-70
2023/06/02 09:43:05;;;;;;;57.37;2.80;;;;;;;;;;5072110;28;21006;-71
2023/06/02 09:45:33;;;;;;;57.03;2.43;;;;;;;;;;5072338;28;20447;-71
2023/06/02 09:48:01;;;;;;;58.07;2.50;;;;;;;;;;5072297;28;20465;-71
2023/06/02 09:50:38;;;;;;;57.03;2.30;;;;;;;;;;5070995;28;20455;-70
2023/06/02 09:53:05;;;;;;;57.67;2.93;;;;;;;;;;5071847;28;20481;-71
2023/06/02 09:55:33;;;;;;;57.57;2.23;;;;;;;;;;5071621;28;20453;-70
2023/06/02 09:58:01;;;;;;;57.27;1.83;;;;;;;;;;5072016;28;20462;-70
2023/06/02 10:00:28;;;;;;;57.17;2.50;;;;;;;;;;5071272;28;20446;-71
2023/06/02 10:02:57;;;;;;;57.37;2.37;;;;;;;;;;5071763;28;21005;-71
2023/06/02 10:05:24;;;;;;;57.90;2.80;;;;;;;;;;5071885;28;20439;-70
2023/06/02 10:07:56;;;;;;;57.80;2.77;;;;;;;;;;5071666;28;20447;-70
2023/06/02 10:10:27;;;;;;;57.13;2.43;;;;;;;;;;5071075;28;20447;-71
2023/06/02 10:13:11;;;;;;;57.20;2.40;;;;;;;;;;5071443;28;20467;-71
2023/06/02 10:15:44;;;;;;;57.10;2.30;;;;;;;;;;5071549;28;20451;-69
2023/06/02 10:18:20;;;;;;;57.80;2.83;;;;;;;;;;5071696;28;20968;-69
2023/06/02 10:20:55;;;;;;;57.37;3.00;;;;;;;;;;5070993;28;20436;-71
2023/06/02 10:23:31;;;;;;;56.67;2.40;;;;;;;;;;5071645;28;20475;-71
2023/06/02 10:26:05;;;;;;;57.20;2.40;;;;;;;;;;5071370;28;20450;-71
2023/06/02 10:28:33;;;;;;;56.63;1.90;;;;;;;;;;5070759;28;20888;-69
2023/06/02 10:31:07;;;;;;;57.07;2.30;;;;;;;;;;5071417;28;20458;-69
2023/06/02 10:33:56;;;;;;;56.80;2.43;;;;;;;;;;5071407;28;20544;-69
2023/06/02 10:36:24;;;;;;;56.70;2.20;;;;;;;;;;5071326;28;20934;-72
2023/06/02 10:38:52;;;;;;;56.83;2.67;;;;;;;;;;5070334;28;20454;-69
2023/06/02 10:41:21;;;;;;;56.27;2.10;;;;;;;;;;5071387;28;20443;-69
2023/06/02 10:44:07;;;;;;;56.20;1.90;;;;;;;;;;5071792;28;20540;-69
2023/06/02 10:46:34;;;;;;;56.50;2.00;;;;;;;;;;5071122;28;20445;-70
2023/06/02 10:49:01;;;;;;;56.47;2.40;;;;;;;;;;5070072;28;21271;-69
2023/06/02 10:51:50;;;;;;;56.10;1.90;;;;;;;;;;5071230;28;20479;-70
2023/06/02 10:54:17;;;;;;;57.27;2.03;;;;;;;;;;5070874;28;20514;-70
2023/06/02 10:56:47;;;;;;;56.50;2.20;;;;;;;;;;5070715;28;20928;-70
2023/06/02 10:59:36;;;;;;;55.97;2.27;;;;;;;;;;5070402;28;20486;-69
2023/06/02 11:02:03;;;;;;;56.60;2.63;;;;;;;;;;5071087;28;20467;-70
2023/06/02 11:04:32;;;;;;;56.50;2.30;;;;;;;;;;5070880;28;20974;-69
2023/06/02 11:07:15;;;;;;;56.30;2.07;;;;;;;;;;5071182;28;20801;-70
2023/06/02 11:09:43;;;;;;;58.80;2.40;;;;;;;;;;5070493;28;20481;-70
2023/06/02 11:12:11;;;;;;;56.90;2.70;;;;;;;;;;5070651;28;20474;-70
2023/06/02 11:14:56;;;;;;;56.30;2.10;;;;;;;;;;5070554;28;21102;-70
2023/06/02 11:17:30;;;;;;;59.37;2.33;;;;;;;;;;5070879;28;20474;-69
2023/06/02 11:19:57;;;;;;;56.00;1.90;;;;;;;;;;5069662;28;20454;-70
2023/06/02 11:22:26;;;;;;;55.83;1.90;;;;;;;;;;5070602;28;20467;-70
2023/06/02 11:24:54;;;;;;;55.67;2.00;;;;;;;;;;5071096;28;20452;-70
2023/06/02 11:27:21;;;;;;;55.77;1.97;;;;;;;;;;5071006;28;20538;-69
2023/06/02 11:30:05;;;;;;;56.20;2.10;;;;;;;;;;5069741;28;20542;-70
2023/06/02 11:32:32;;;;;;;55.87;2.20;;;;;;;;;;5071190;28;20548;-70
2023/06/02 11:35:01;;;;;;;55.47;1.60;;;;;;;;;;5070472;28;21026;-70
2023/06/02 11:37:29;;;;;;;55.83;2.10;;;;;;;;;;5070770;28;20455;-70
2023/06/02 11:39:57;;;;;;;56.50;2.10;;;;;;;;;;5070051;28;20443;-70
2023/06/02 11:42:34;;;;;;;56.20;2.13;;;;;;;;;;5070825;28;20466;-70
2023/06/02 11:45:01;;;;;;;56.30;3.20;;;;;;;;;;5070599;28;20900;-71
2023/06/02 11:47:28;;;;;;;56.40;2.03;;;;;;;;;;5070633;28;20855;-71
2023/06/02 11:49:55;;;;;;;56.10;2.00;;;;;;;;;;5070035;28;20458;-71
2023/06/02 11:52:22;;;;;;;55.87;2.40;;;;;;;;;;5070794;28;20478;-71
2023/06/02 11:54:51;;;;;;;55.87;1.90;;;;;;;;;;5070354;28;20561;-71
2023/06/02 11:57:33;;;;;;;55.50;1.83;;;;;;;;;;5070345;28;20553;-71
2023/06/02 12:00:09;;;;;;;57.97;2.33;;;;;;;;;;5068382;28;21050;-71
2023/06/02 12:02:38;;;;;;;55.83;2.70;;;;;;;;;;5074241;28;20466;-71
2023/06/02 12:05:06;;;;;;;55.73;2.13;;;;;;;;;;5074218;28;20530;-71
2023/06/02 12:07:33;;;;;;;55.57;2.10;;;;;;;;;;5073961;28;20526;-71
2023/06/02 12:10:03;;;;;;;55.77;2.40;;;;;;;;;;5073527;28;20439;-71
2023/06/02 12:12:31;;;;;;;56.20;2.00;;;;;;;;;;5074005;28;20739;-72
2023/06/02 12:14:58;;;;;;;55.60;1.90;;;;;;;;;;5074016;28;20874;-71
2023/06/02 12:17:25;;;;;;;55.50;2.00;;;;;;;;;;5074202;28;20481;-71
2023/06/02 12:19:58;;;;;;;56.20;2.73;;;;;;;;;;5073203;28;20471;-72
2023/06/02 12:22:26;;;;;;;56.40;2.50;;;;;;;;;;5073929;28;20550;-71
2023/06/02 12:24:53;;;;;;;55.80;1.97;;;;;;;;;;5073607;28;20483;-71
2023/06/02 12:27:24;;;;;;;55.57;2.27;;;;;;;;;;5073815;28;20456;-72
2023/06/02 12:29:52;;;;;;;55.30;1.80;;;;;;;;;;5073078;28;20546;-72
2023/06/02 12:32:26;;;;;;;55.67;2.30;;;;;;;;;;5073920;28;20561;-71
2023/06/02 12:34:53;;;;;;;55.40;2.00;;;;;;;;;;5074154;28;20821;-71
2023/06/02 12:37:20;;;;;;;55.87;2.40;;;;;;;;;;5073715;28;20893;-71
2023/06/02 12:39:48;;;;;;;55.80;2.43;;;;;;;;;;5072586;28;20477;-71
2023/06/02 12:42:18;;;;;;;56.20;2.27;;;;;;;;;;5073402;28;20471;-72
2023/06/02 12:44:48;;;;;;;55.90;2.60;;;;;;;;;;5073855;28;20490;-71
2023/06/02 12:47:16;;;;;;;55.90;1.90;;;;;;;;;;5073307;28;20455;-72
2023/06/02 12:49:47;;;;;;;55.40;2.33;;;;;;;;;;5072537;28;20490;-71
2023/06/02 12:52:14;;;;;;;55.20;1.90;;;;;;;;;;5073082;28;20486;-72
2023/06/02 12:54:41;;;;;;;55.30;1.70;;;;;;;;;;5073125;28;20462;-71
2023/06/02 12:57:09;;;;;;;55.47;1.97;;;;;;;;;;5073027;28;20455;-72
2023/06/02 12:59:36;;;;;;;55.40;2.20;;;;;;;;;;5072821;28;20814;-71
2023/06/02 13:02:06;;;;;;;55.40;1.57;;;;;;;;;;5073297;28;20474;-71
2023/06/02 13:04:33;;;;;;;56.00;2.43;;;;;;;;;;5072871;28;21007;-71
2023/06/02 13:07:01;;;;;;;55.47;2.00;;;;;;;;;;5072859;28;20451;-71
2023/06/02 13:09:29;;;;;;;55.33;2.03;;;;;;;;;;5072411;28;20493;-71
2023/06/02 13:11:56;;;;;;;55.80;2.00;;;;;;;;;;5072769;28;20467;-71
2023/06/02 13:14:23;;;;;;;55.40;2.00;;;;;;;;;;5073131;28;20451;-71
2023/06/02 13:16:50;;;;;;;55.70;2.10;;;;;;;;;;5072930;28;20447;-71
2023/06/02 13:19:18;;;;;;;55.20;1.87;;;;;;;;;;5071788;28;20451;-71
2023/06/02 13:21:46;;;;;;;55.57;1.80;;;;;;;;;;5073030;28;20851;-71
2023/06/02 13:24:15;;;;;;;55.43;1.77;;;;;;;;;;5072768;28;20491;-71
2023/06/02 13:26:43;;;;;;;55.57;1.73;;;;;;;;;;5072404;28;21009;-71
2023/06/02 13:29:10;;;;;;;56.00;2.20;;;;;;;;;;5071833;28;20820;-72
2023/06/02 13:31:38;;;;;;;56.47;2.90;;;;;;;;;;5072444;28;20463;-71
2023/06/02 13:34:05;;;;;;;55.40;2.30;;;;;;;;;;5072609;28;20455;-72
2023/06/02 13:36:34;;;;;;;55.77;2.57;;;;;;;;;;5072496;28;20846;-71
2023/06/02 13:39:01;;;;;;;55.50;2.27;;;;;;;;;;5071725;28;20462;-71
2023/06/02 13:41:28;;;;;;;55.30;1.97;;;;;;;;;;5072413;28;20448;-72
2023/06/02 13:43:56;;;;;;;55.70;2.20;;;;;;;;;;5072252;28;20952;-71
2023/06/02 13:46:23;;;;;;;55.40;1.97;;;;;;;;;;5071852;28;20489;-72
2023/06/02 13:48:50;;;;;;;55.30;1.80;;;;;;;;;;5071416;28;20466;-72
2023/06/02 13:51:17;;;;;;;55.30;2.00;;;;;;;;;;5072138;28;20450;-71
2023/06/02 13:53:45;;;;;;;55.27;1.80;;;;;;;;;;5071967;28;20451;-71
2023/06/02 13:56:12;;;;;;;55.80;2.20;;;;;;;;;;5071901;28;20775;-71
2023/06/02 13:58:40;;;;;;;55.87;2.50;;;;;;;;;;5071147;28;20944;-71
2023/06/02 14:01:07;;;;;;;55.57;1.80;;;;;;;;;;5071629;28;20457;-71
2023/06/02 14:03:34;;;;;;;55.87;2.30;;;;;;;;;;5072378;28;20836;-71
2023/06/02 14:06:02;;;;;;;55.80;2.20;;;;;;;;;;5071795;28;20590;-71
2023/06/02 14:08:29;;;;;;;55.87;2.20;;;;;;;;;;5071610;28;20879;-71
2023/06/02 14:10:58;;;;;;;55.83;2.20;;;;;;;;;;5071636;28;20458;-72
2023/06/02 14:13:26;;;;;;;55.70;2.23;;;;;;;;;;5072017;28;20476;-72
2023/06/02 14:15:53;;;;;;;55.77;1.67;;;;;;;;;;5071748;28;20443;-71
2023/06/02 14:18:20;;;;;;;55.57;2.10;;;;;;;;;;5071957;28;20443;-71
2023/06/02 14:20:47;;;;;;;55.87;1.90;;;;;;;;;;5071119;28;20493;-71
2023/06/02 14:23:14;;;;;;;55.70;2.00;;;;;;;;;;5070903;28;20468;-71
2023/06/02 14:25:42;;;;;;;56.10;1.87;;;;;;;;;;5071258;28;21011;-71
2023/06/02 14:28:11;;;;;;;55.80;2.27;;;;;;;;;;5071296;28;20848;-71
2023/06/02 14:30:38;;;;;;;55.57;2.10;;;;;;;;;;5071020;28;20469;-71
2023/06/02 14:33:05;;;;;;;56.73;2.60;;;;;;;;;;5071553;28;20471;-72
2023/06/02 14:35:32;;;;;;;55.50;2.00;;;;;;;;;;5071218;28;20966;-71
2023/06/02 14:37:59;;;;;;;55.90;1.93;;;;;;;;;;5071404;28;20454;-71